Time;durP1;ratioP1;P1;durP2;ratioP2;P2;SDS_P1;SDS_P2;PMS_P1;PMS_P2;Temp;Humidity;BMP_temperature;BMP_pressure;BME280_temperature;BME280_humidity;BME280_pressure;Samples;Min_cycle;Max_cycle;Signal;HPM_P1;HPM_P2
2022/10/25 00:00:21;;;;;;;1.45;1.20;;;18.60;60.10;;;;;;6050675;23;20231;-83
2022/10/25 00:02:50;;;;;;;1.55;1.40;;;18.70;60.30;;;;;;6007464;23;20162;-83
2022/10/25 00:05:31;;;;;;;2.00;1.52;;;18.60;60.30;;;;;;6033766;23;20150;-83
2022/10/25 00:08:19;;;;;;;1.20;1.10;;;18.60;60.30;;;;;;6060706;23;20225;-83
2022/10/25 00:10:52;;;;;;;3.40;1.40;;;18.60;60.30;;;;;;6055347;23;20276;-82
2022/10/25 00:13:37;;;;;;;2.05;1.50;;;18.60;60.30;;;;;;6032151;23;20158;-83
2022/10/25 00:16:55;;;;;;;1.60;1.38;;;18.60;60.30;;;;;;6039257;23;20154;-82
2022/10/25 00:19:25;;;;;;;1.45;1.17;;;18.70;60.40;;;;;;6089531;23;20192;-83
2022/10/25 00:21:58;;;;;;;2.38;1.10;;;18.60;60.30;;;;;;6088011;23;20158;-83
2022/10/25 00:24:47;;;;;;;2.72;1.35;;;18.60;60.30;;;;;;6030012;23;20222;-83
2022/10/25 00:27:31;;;;;;;3.08;1.42;;;18.60;60.20;;;;;;6054870;23;20233;-83
2022/10/25 00:30:04;;;;;;;1.30;1.20;;;18.60;60.30;;;;;;6032155;23;20155;-83
2022/10/25 00:32:33;;;;;;;1.63;1.30;;;18.60;60.30;;;;;;6031394;23;20150;-83
2022/10/25 00:35:14;;;;;;;2.60;1.33;;;18.60;60.30;;;;;;6015331;23;20159;-83
2022/10/25 00:37:59;;;;;;;1.77;1.17;;;18.60;60.40;;;;;;6003314;23;20241;-83
2022/10/25 00:40:34;;;;;;;4.47;1.48;;;18.60;60.40;;;;;;6003620;23;20576;-83
2022/10/25 00:43:04;;;;;;;4.03;1.40;;;18.60;60.50;;;;;;6054538;23;20413;-83
2022/10/25 00:45:39;;;;;;;1.42;1.25;;;18.60;60.50;;;;;;6008163;23;20248;-84
2022/10/25 00:48:36;;;;;;;2.50;1.40;;;18.60;60.50;;;;;;6029411;23;20183;-82
2022/10/25 00:51:19;;;;;;;2.85;1.40;;;18.60;60.40;;;;;;6017975;23;20154;-83
2022/10/25 00:53:53;;;;;;;2.22;1.52;;;18.60;60.60;;;;;;6081462;23;20168;-83
2022/10/25 00:56:24;;;;;;;1.90;1.60;;;18.50;60.40;;;;;;6031796;23;20161;-83
2022/10/25 00:58:57;;;;;;;3.17;1.52;;;18.60;60.50;;;;;;5979646;24;20194;-83
2022/10/25 01:01:28;;;;;;;1.67;1.45;;;18.60;60.50;;;;;;5958939;24;20200;-82
2022/10/25 01:04:04;;;;;;;1.73;1.30;;;18.60;60.50;;;;;;6002982;23;20160;-83
2022/10/25 01:06:47;;;;;;;2.63;1.58;;;18.60;60.50;;;;;;5957117;24;20180;-83
2022/10/25 01:09:30;;;;;;;1.75;1.50;;;18.60;60.50;;;;;;5956673;24;20357;-83
2022/10/25 01:12:05;;;;;;;1.38;1.20;;;18.50;60.50;;;;;;6003147;23;20155;-83
2022/10/25 01:14:34;;;;;;;1.88;1.38;;;18.50;60.50;;;;;;5964483;24;20185;-83
2022/10/25 01:17:13;;;;;;;3.70;1.30;;;18.50;60.50;;;;;;5955013;24;20160;-83
2022/10/25 01:20:21;;;;;;;1.77;1.13;;;18.50;60.60;;;;;;6021973;23;20200;-83
2022/10/25 01:22:57;;;;;;;3.45;1.52;;;18.50;60.60;;;;;;6060031;23;20154;-82
2022/10/25 01:25:51;;;;;;;2.88;1.50;;;18.60;60.80;;;;;;6035182;23;20141;-83
2022/10/25 01:28:36;;;;;;;1.58;1.40;;;18.50;60.70;;;;;;6086720;23;20177;-83
2022/10/25 01:31:41;;;;;;;3.10;1.60;;;18.50;60.70;;;;;;6085663;23;20152;-83
2022/10/25 01:34:32;;;;;;;2.55;1.60;;;18.50;60.70;;;;;;6104875;23;20163;-83
2022/10/25 01:37:19;;;;;;;2.15;1.42;;;18.50;60.70;;;;;;6146401;23;20225;-83
2022/10/25 01:40:01;;;;;;;1.65;1.55;;;18.60;60.70;;;;;;6154166;23;20190;-83
2022/10/25 01:42:55;;;;;;;1.67;1.40;;;18.50;60.70;;;;;;6130441;23;20151;-83
2022/10/25 01:45:36;;;;;;;1.95;1.30;;;18.50;60.70;;;;;;6080369;23;20159;-83
2022/10/25 01:48:23;;;;;;;1.67;1.33;;;18.60;60.80;;;;;;6071682;23;20149;-83
2022/10/25 01:51:09;;;;;;;1.80;1.40;;;18.50;60.70;;;;;;6053369;23;20161;-83
2022/10/25 01:53:50;;;;;;;2.08;1.60;;;18.50;60.70;;;;;;6178697;23;20159;-83
2022/10/25 01:56:37;;;;;;;1.58;1.48;;;18.50;60.80;;;;;;6129991;23;20155;-83
2022/10/25 01:59:42;;;;;;;1.92;1.40;;;18.50;60.80;;;;;;6130704;23;20174;-83
2022/10/25 02:02:50;;;;;;;1.58;1.38;;;18.50;60.80;;;;;;6154012;23;20159;-83
2022/10/25 02:05:37;;;;;;;1.90;1.42;;;18.50;60.80;;;;;;6089463;23;20147;-82
2022/10/25 02:08:27;;;;;;;2.00;1.38;;;18.40;60.60;;;;;;6045005;23;20169;-83
2022/10/25 02:11:04;;;;;;;2.05;1.80;;;18.50;60.70;;;;;;6068114;23;20157;-83
2022/10/25 02:14:08;;;;;;;2.85;1.50;;;18.50;60.70;;;;;;6033002;23;20172;-83
2022/10/25 02:16:39;;;;;;;2.78;1.40;;;18.50;60.70;;;;;;6051041;23;20154;-83
2022/10/25 02:19:34;;;;;;;1.73;1.50;;;18.50;60.70;;;;;;6062538;23;20206;-83
2022/10/25 02:22:14;;;;;;;2.22;1.35;;;18.50;60.70;;;;;;5991899;23;20522;-83
2022/10/25 02:24:45;;;;;;;2.90;1.73;;;18.50;60.70;;;;;;5994210;23;20188;-83
2022/10/25 02:27:17;;;;;;;1.42;1.15;;;18.50;60.60;;;;;;6016377;23;20154;-83
2022/10/25 02:29:54;;;;;;;1.33;1.10;;;18.50;60.70;;;;;;6016274;23;20169;-83
2022/10/25 02:32:38;;;;;;;2.13;1.40;;;18.50;60.80;;;;;;5997668;23;20185;-83
2022/10/25 02:35:17;;;;;;;1.42;1.25;;;18.50;60.70;;;;;;5996658;23;20161;-83
2022/10/25 02:38:04;;;;;;;1.60;1.48;;;18.50;60.80;;;;;;6042817;23;20152;-83
2022/10/25 02:40:32;;;;;;;2.85;1.50;;;18.50;60.80;;;;;;6055354;23;20203;-83
2022/10/25 02:43:06;;;;;;;1.77;1.42;;;18.50;60.80;;;;;;6100827;23;20152;-83
2022/10/25 02:45:43;;;;;;;2.10;1.60;;;18.50;60.80;;;;;;6108288;23;20153;-83
2022/10/25 02:48:22;;;;;;;1.90;1.40;;;18.50;60.80;;;;;;6184863;23;20593;-83
2022/10/25 02:50:50;;;;;;;2.05;1.67;;;18.50;60.80;;;;;;6135415;23;20150;-83
2022/10/25 02:53:16;;;;;;;1.40;1.30;;;18.50;60.70;;;;;;6134739;23;20150;-83
2022/10/25 02:56:09;;;;;;;1.40;1.20;;;18.50;60.70;;;;;;6158605;23;20161;-83
2022/10/25 02:58:41;;;;;;;3.35;1.70;;;18.50;60.70;;;;;;6208531;23;20151;-83
2022/10/25 03:01:07;;;;;;;2.17;1.33;;;18.50;60.80;;;;;;6178261;23;20135;-83
2022/10/25 03:03:56;;;;;;;1.80;1.50;;;18.50;60.80;;;;;;6178228;23;20140;-83
2022/10/25 03:06:22;;;;;;;3.28;1.33;;;18.50;60.80;;;;;;6079359;23;20204;-83
2022/10/25 03:09:03;;;;;;;2.00;1.25;;;18.50;60.80;;;;;;6092030;23;20181;-83
2022/10/25 03:11:34;;;;;;;1.50;1.40;;;18.50;60.80;;;;;;6142718;23;20190;-83
2022/10/25 03:14:17;;;;;;;2.10;1.23;;;18.50;60.80;;;;;;6118779;23;20220;-82
2022/10/25 03:16:55;;;;;;;1.70;1.50;;;18.50;61.70;;;;;;6123811;23;20155;-83
2022/10/25 03:19:55;;;;;;;2.38;1.58;;;18.40;60.80;;;;;;6099685;23;20184;-83
2022/10/25 03:22:37;;;;;;;1.60;1.40;;;18.40;60.90;;;;;;6123768;23;20198;-83
2022/10/25 03:25:10;;;;;;;2.47;1.40;;;18.40;61.80;;;;;;6124697;23;20152;-82
2022/10/25 03:27:59;;;;;;;1.50;1.35;;;18.40;61.00;;;;;;6072044;23;20156;-83
2022/10/25 03:30:49;;;;;;;2.13;1.30;;;18.40;60.90;;;;;;6095264;23;20164;-83
2022/10/25 03:33:17;;;;;;;1.45;1.30;;;18.40;60.90;;;;;;6006678;23;20159;-83
2022/10/25 03:35:43;;;;;;;1.88;1.33;;;18.40;60.90;;;;;;6024539;23;20674;-83
2022/10/25 03:38:18;;;;;;;2.17;1.42;;;18.40;60.90;;;;;;5978124;23;20673;-83
2022/10/25 03:40:46;;;;;;;1.83;1.60;;;18.40;61.90;;;;;;5934431;24;20203;-83
2022/10/25 03:43:23;;;;;;;2.55;1.40;;;18.40;60.90;;;;;;6023181;23;20174;-83
2022/10/25 03:45:52;;;;;;;2.05;1.35;;;18.50;60.90;;;;;;5960056;24;20151;-83
2022/10/25 03:48:44;;;;;;;1.67;1.23;;;18.40;61.60;;;;;;6039401;23;20166;-83
2022/10/25 03:51:36;;;;;;;1.30;1.20;;;18.40;61.00;;;;;;6017918;23;20138;-83
2022/10/25 03:54:07;;;;;;;1.33;1.20;;;18.40;60.80;;;;;;6038880;23;20154;-83
2022/10/25 03:56:39;;;;;;;2.28;1.35;;;18.40;60.90;;;;;;6017521;23;20205;-83
2022/10/25 03:59:19;;;;;;;2.35;1.38;;;18.40;60.90;;;;;;6115196;23;20176;-83
2022/10/25 04:01:46;;;;;;;1.75;1.30;;;18.40;60.90;;;;;;6121487;23;20148;-83
2022/10/25 04:04:19;;;;;;;1.60;1.40;;;18.40;61.00;;;;;;6150692;23;20167;-83
2022/10/25 04:07:03;;;;;;;1.45;1.30;;;18.50;60.90;;;;;;6068942;23;20156;-83
2022/10/25 04:09:34;;;;;;;1.95;1.55;;;18.50;61.00;;;;;;6116394;23;20176;-83
2022/10/25 04:12:09;;;;;;;1.45;1.30;;;18.40;60.90;;;;;;6089957;23;20164;-83
2022/10/25 04:14:35;;;;;;;1.55;1.40;;;18.40;60.70;;;;;;6070036;23;20219;-82
2022/10/25 04:17:07;;;;;;;2.33;1.50;;;18.50;60.90;;;;;;6116422;23;20640;-83
2022/10/25 04:19:33;;;;;;;1.60;1.40;;;18.50;61.00;;;;;;6093002;23;20192;-83
2022/10/25 04:22:03;;;;;;;1.60;1.20;;;18.40;61.00;;;;;;6116786;23;20172;-83
2022/10/25 04:24:32;;;;;;;1.80;1.27;;;18.40;61.00;;;;;;6082460;23;20154;-83
2022/10/25 04:27:07;;;;;;;1.85;1.42;;;18.50;60.90;;;;;;6087958;23;20149;-83
2022/10/25 04:29:36;;;;;;;1.55;1.45;;;18.40;60.90;;;;;;6016531;23;20156;-83
2022/10/25 04:32:02;;;;;;;1.67;1.20;;;18.40;61.00;;;;;;6087666;23;20215;-83
2022/10/25 04:34:37;;;;;;;1.58;1.27;;;18.50;61.10;;;;;;6035121;23;20158;-83
2022/10/25 04:37:03;;;;;;;1.40;1.20;;;18.40;61.10;;;;;;6011284;23;20182;-83
2022/10/25 04:39:36;;;;;;;1.40;1.30;;;18.40;61.00;;;;;;6034770;23;20186;-83
2022/10/25 04:42:18;;;;;;;1.58;1.30;;;18.40;61.10;;;;;;6055546;23;20257;-83
2022/10/25 04:45:01;;;;;;;2.50;1.50;;;18.40;61.00;;;;;;6035502;23;20165;-83
2022/10/25 04:47:33;;;;;;;1.27;1.17;;;18.50;60.80;;;;;;6010300;23;20239;-82
2022/10/25 04:49:59;;;;;;;1.90;1.50;;;18.40;60.80;;;;;;5989676;23;20294;-83
2022/10/25 04:52:32;;;;;;;1.60;1.40;;;18.40;60.90;;;;;;6008156;23;20162;-83
2022/10/25 04:55:07;;;;;;;1.77;1.30;;;18.40;61.00;;;;;;5974322;23;20246;-83
2022/10/25 04:57:43;;;;;;;1.95;1.48;;;18.50;61.20;;;;;;5992790;24;20223;-84
2022/10/25 05:00:19;;;;;;;1.75;1.40;;;18.40;61.10;;;;;;5974719;24;20188;-83
2022/10/25 05:02:51;;;;;;;1.73;1.25;;;18.40;61.10;;;;;;5974755;24;20163;-83
2022/10/25 05:05:17;;;;;;;3.10;1.27;;;18.40;61.20;;;;;;5945250;23;20216;-83
2022/10/25 05:07:48;;;;;;;2.17;1.10;;;18.40;61.20;;;;;;6031806;23;20155;-82
2022/10/25 05:10:14;;;;;;;1.50;1.35;;;18.40;61.30;;;;;;5979734;23;20140;-83
2022/10/25 05:12:48;;;;;;;2.35;1.55;;;18.40;61.40;;;;;;6003709;23;20173;-83
2022/10/25 05:15:17;;;;;;;3.65;1.90;;;18.40;61.60;;;;;;6003662;23;20243;-83
2022/10/25 05:18:12;;;;;;;2.30;1.80;;;18.50;62.00;;;;;;6003676;24;20249;-83
2022/10/25 05:20:50;;;;;;;1.75;1.65;;;18.50;62.20;;;;;;6027738;23;20190;-83
2022/10/25 05:23:35;;;;;;;2.03;1.73;;;18.50;62.20;;;;;;5997159;24;20266;-83
2022/10/25 05:26:12;;;;;;;1.80;1.60;;;18.50;62.30;;;;;;6037429;23;20154;-83
2022/10/25 05:29:03;;;;;;;2.13;1.92;;;18.60;62.50;;;;;;6047133;23;20153;-83
2022/10/25 05:31:39;;;;;;;1.70;1.58;;;18.60;62.50;;;;;;6056493;23;20155;-83
2022/10/25 05:34:27;;;;;;;2.75;1.90;;;18.60;62.50;;;;;;6021631;23;20153;-83
2022/10/25 05:37:13;;;;;;;2.22;2.03;;;18.60;62.60;;;;;;6071237;23;20153;-83
2022/10/25 05:39:49;;;;;;;2.20;2.00;;;18.60;62.70;;;;;;6118670;23;20181;-83
2022/10/25 05:42:26;;;;;;;2.40;2.20;;;18.60;62.70;;;;;;6068746;23;20204;-83
2022/10/25 05:45:11;;;;;;;2.22;1.90;;;18.60;62.70;;;;;;6112091;23;20172;-83
2022/10/25 05:47:47;;;;;;;2.28;1.98;;;18.60;62.90;;;;;;6036168;23;20169;-83
2022/10/25 05:50:31;;;;;;;2.00;1.80;;;18.70;63.00;;;;;;6062378;23;20154;-83
2022/10/25 05:53:16;;;;;;;2.40;2.20;;;18.70;62.90;;;;;;6026939;23;20215;-82
2022/10/25 05:55:45;;;;;;;2.88;1.88;;;18.60;63.10;;;;;;6002875;24;20148;-82
2022/10/25 05:58:11;;;;;;;2.35;2.15;;;18.60;63.10;;;;;;6023322;23;20242;-83
2022/10/25 06:00:47;;;;;;;2.13;1.85;;;18.70;63.10;;;;;;5959187;24;20189;-83
2022/10/25 06:03:13;;;;;;;4.05;2.20;;;18.70;63.20;;;;;;5940250;24;20160;-83
2022/10/25 06:05:43;;;;;;;2.80;1.70;;;18.70;63.30;;;;;;5973017;24;20283;-84
2022/10/25 06:08:12;;;;;;;2.75;2.22;;;18.70;63.20;;;;;;5971605;24;20159;-84
2022/10/25 06:10:38;;;;;;;2.30;2.03;;;18.70;63.20;;;;;;6065370;23;20157;-83
2022/10/25 06:13:08;;;;;;;2.80;2.22;;;18.70;63.50;;;;;;6080084;23;20186;-83
2022/10/25 06:15:37;;;;;;;2.30;2.10;;;18.70;63.40;;;;;;6008967;23;20468;-84
2022/10/25 06:18:04;;;;;;;3.38;2.45;;;18.70;63.50;;;;;;6056859;23;20165;-83
2022/10/25 06:20:34;;;;;;;2.95;2.20;;;18.70;63.60;;;;;;6031933;23;20270;-83
2022/10/25 06:23:08;;;;;;;2.42;1.98;;;18.70;63.60;;;;;;5998746;23;20160;-84
2022/10/25 06:25:41;;;;;;;2.83;2.33;;;18.80;63.70;;;;;;6121547;23;20201;-83
2022/10/25 06:28:10;;;;;;;2.83;2.42;;;18.80;63.90;;;;;;6120726;23;20155;-83
2022/10/25 06:30:36;;;;;;;2.65;2.38;;;18.80;63.90;;;;;;6146017;23;20132;-84
2022/10/25 06:33:06;;;;;;;2.90;2.40;;;18.80;64.00;;;;;;6169743;23;20230;-83
2022/10/25 06:35:37;;;;;;;3.10;2.53;;;18.80;64.10;;;;;;6146844;23;20156;-83
2022/10/25 06:38:06;;;;;;;2.83;2.40;;;18.80;64.20;;;;;;6199214;23;20241;-84
2022/10/25 06:40:34;;;;;;;2.60;2.40;;;18.80;64.30;;;;;;6186766;23;20204;-83
2022/10/25 06:43:00;;;;;;;4.20;2.58;;;18.80;64.40;;;;;;6215400;23;20152;-83
2022/10/25 06:45:26;;;;;;;3.05;2.40;;;18.80;64.10;;;;;;6238957;23;20545;-83
2022/10/25 06:47:55;;;;;;;2.72;2.28;;;18.80;64.30;;;;;;6240294;23;20653;-82
2022/10/25 06:50:21;;;;;;;2.90;2.53;;;18.90;64.30;;;;;;6239237;23;20160;-83
2022/10/25 06:52:47;;;;;;;2.95;2.40;;;18.80;64.40;;;;;;6238944;23;20215;-83
2022/10/25 06:55:13;;;;;;;3.55;2.90;;;18.90;64.20;;;;;;6235772;23;20145;-83
2022/10/25 06:57:39;;;;;;;2.88;2.55;;;18.80;64.30;;;;;;6261716;22;20197;-84
2022/10/25 07:00:18;;;;;;;3.28;2.63;;;18.90;64.30;;;;;;6260363;23;20157;-83
2022/10/25 07:02:52;;;;;;;3.38;2.65;;;18.90;64.60;;;;;;6235099;23;20205;-83
2022/10/25 07:05:22;;;;;;;2.95;2.63;;;18.90;64.70;;;;;;6264463;23;20214;-82
2022/10/25 07:07:48;;;;;;;3.65;2.67;;;18.90;64.60;;;;;;6211255;23;20213;-83
2022/10/25 07:10:19;;;;;;;4.90;2.90;;;18.90;64.80;;;;;;6235107;23;20167;-83
2022/10/25 07:12:47;;;;;;;3.88;2.55;;;18.90;64.90;;;;;;6258963;23;20244;-84
2022/10/25 07:15:13;;;;;;;3.55;2.90;;;19.00;65.10;;;;;;6234851;23;20214;-83
2022/10/25 07:17:44;;;;;;;3.83;3.00;;;19.00;65.10;;;;;;6234997;23;20149;-83
2022/10/25 07:20:18;;;;;;;5.25;3.00;;;19.00;65.10;;;;;;6261267;23;20177;-84
2022/10/25 07:22:45;;;;;;;3.13;2.70;;;19.00;65.10;;;;;;6259228;23;20149;-83
2022/10/25 07:25:11;;;;;;;3.38;2.60;;;18.90;65.10;;;;;;6235667;23;20160;-83
2022/10/25 07:27:42;;;;;;;3.33;2.80;;;19.00;65.20;;;;;;6258705;23;20152;-83
2022/10/25 07:30:08;;;;;;;3.92;3.03;;;19.00;65.40;;;;;;6234062;23;20153;-83
2022/10/25 07:32:44;;;;;;;3.42;3.03;;;19.00;65.50;;;;;;6234106;23;20160;-83
2022/10/25 07:35:20;;;;;;;3.58;3.17;;;19.00;65.60;;;;;;6208743;23;20165;-84
2022/10/25 07:37:46;;;;;;;3.80;3.08;;;18.90;66.60;;;;;;6208814;23;20175;-83
2022/10/25 07:40:15;;;;;;;5.72;3.03;;;18.90;65.90;;;;;;6232877;23;20177;-83
2022/10/25 07:42:41;;;;;;;4.90;2.92;;;19.00;66.00;;;;;;6258676;22;20154;-84
2022/10/25 07:45:15;;;;;;;3.15;2.78;;;19.00;66.00;;;;;;6234872;23;20169;-83
2022/10/25 07:47:50;;;;;;;3.63;2.90;;;19.00;65.90;;;;;;6206483;23;20150;-83
2022/10/25 07:50:16;;;;;;;3.22;2.90;;;19.00;66.00;;;;;;6229640;23;20216;-84
2022/10/25 07:52:44;;;;;;;4.25;3.20;;;19.10;66.00;;;;;;6255223;23;20149;-84
2022/10/25 07:55:17;;;;;;;7.32;3.10;;;19.10;66.00;;;;;;6235369;22;20207;-84
2022/10/25 07:57:50;;;;;;;3.67;3.08;;;19.10;66.10;;;;;;6189956;22;20155;-83
2022/10/25 08:00:22;;;;;;;3.72;2.95;;;19.10;66.20;;;;;;6163259;22;20184;-83
2022/10/25 08:02:52;;;;;;;4.53;3.08;;;19.00;66.10;;;;;;6188041;22;20156;-83
2022/10/25 08:05:19;;;;;;;4.88;3.25;;;19.10;66.40;;;;;;6189101;22;20179;-83
2022/10/25 08:07:51;;;;;;;4.93;2.90;;;19.10;67.30;;;;;;6264917;22;20140;-83
2022/10/25 08:10:19;;;;;;;4.55;3.20;;;19.10;66.50;;;;;;6210895;22;20133;-83
2022/10/25 08:12:53;;;;;;;6.10;3.10;;;19.10;66.50;;;;;;6237143;22;20145;-84
2022/10/25 08:15:24;;;;;;;6.35;3.20;;;19.00;66.70;;;;;;6185828;22;20151;-83
2022/10/25 08:18:02;;;;;;;4.72;3.05;;;19.10;66.60;;;;;;6183931;22;20488;-83
2022/10/25 08:20:28;;;;;;;3.45;3.15;;;19.10;66.60;;;;;;6186079;22;20510;-84
2022/10/25 08:23:00;;;;;;;3.70;3.00;;;19.10;66.60;;;;;;6261805;22;20607;-83
2022/10/25 08:25:27;;;;;;;3.53;2.70;;;19.10;66.60;;;;;;6186236;22;20149;-83
2022/10/25 08:27:58;;;;;;;4.85;3.05;;;19.10;66.50;;;;;;6239536;22;20148;-83
2022/10/25 08:30:30;;;;;;;4.40;3.17;;;19.20;66.60;;;;;;6187445;22;20159;-83
2022/10/25 08:33:06;;;;;;;5.63;3.10;;;19.20;66.70;;;;;;6187876;22;20584;-83
2022/10/25 08:35:37;;;;;;;3.88;3.25;;;19.20;66.70;;;;;;6214956;22;20231;-83
2022/10/25 08:38:09;;;;;;;4.55;3.22;;;19.20;66.70;;;;;;6188606;22;20235;-84
2022/10/25 08:41:05;;;;;;;5.78;3.47;;;19.10;66.90;;;;;;6159903;23;20208;-84
2022/10/25 08:43:47;;;;;;;4.43;3.10;;;19.10;67.00;;;;;;6259546;23;20129;-83
2022/10/25 08:46:42;;;;;;;8.05;3.50;;;19.10;67.00;;;;;;6233873;23;20141;-83
2022/10/25 08:49:24;;;;;;;4.85;3.53;;;19.20;67.20;;;;;;6235288;23;20149;-84
2022/10/25 08:51:50;;;;;;;9.27;3.55;;;19.20;67.10;;;;;;6259735;22;20172;-84
2022/10/25 08:54:23;;;;;;;15.93;4.28;;;19.20;67.30;;;;;;6258273;23;20145;-83
2022/10/25 08:56:52;;;;;;;14.45;3.70;;;19.20;67.40;;;;;;6258832;23;20189;-84
2022/10/25 08:59:27;;;;;;;10.80;4.03;;;19.20;67.40;;;;;;6233899;23;20173;-84
2022/10/25 09:02:22;;;;;;;17.23;3.90;;;19.20;67.40;;;;;;6259939;23;20164;-84
2022/10/25 09:05:01;;;;;;;29.25;4.63;;;19.20;67.40;;;;;;6258150;23;20210;-84
2022/10/25 09:07:59;;;;;;;27.15;4.15;;;19.30;67.70;;;;;;6257828;22;20145;-84
2022/10/25 09:11:19;;;;;;;23.13;4.57;;;19.20;67.60;;;;;;6236743;23;20204;-84
2022/10/25 09:14:12;;;;;;;25.17;4.03;;;19.20;67.70;;;;;;6228443;23;20149;-84
2022/10/25 09:17:09;;;;;;;21.63;3.92;;;19.20;67.80;;;;;;6235178;23;20153;-84
2022/10/25 09:19:52;;;;;;;21.58;4.50;;;19.20;68.10;;;;;;6257446;23;20169;-84
2022/10/25 09:22:27;;;;;;;18.45;3.90;;;19.20;68.10;;;;;;6230078;23;20222;-84
2022/10/25 09:25:38;;;;;;;13.85;4.30;;;19.20;68.30;;;;;;6188125;23;20486;-84
2022/10/25 09:28:56;;;;;;;16.75;4.05;;;19.20;68.30;;;;;;6125546;23;20162;-84
2022/10/25 09:31:41;;;;;;;18.10;4.05;;;19.20;68.40;;;;;;6141729;23;20190;-85
2022/10/25 09:34:15;;;;;;;9.45;3.90;;;19.20;68.40;;;;;;6116244;23;20159;-85
2022/10/25 09:37:31;;;;;;;11.15;3.80;;;19.20;68.50;;;;;;6116223;23;20163;-85
2022/10/25 09:40:24;;;;;;;12.60;4.43;;;19.20;68.50;;;;;;6168392;23;20217;-84
2022/10/25 09:42:54;;;;;;;10.35;3.95;;;19.30;68.70;;;;;;6142282;23;20186;-84
2022/10/25 09:45:41;;;;;;;;;;;;;;;;;;;;;
2022/10/25 09:48:20;;;;;;;9.98;3.67;;;19.30;68.60;;;;;;6120076;23;20155;-84
2022/10/25 09:51:30;;;;;;;8.88;3.50;;;19.30;68.50;;;;;;6170417;23;20214;-85
2022/10/25 09:54:03;;;;;;;8.65;4.00;;;19.30;68.50;;;;;;6171728;23;20211;-84
2022/10/25 09:56:47;;;;;;;6.80;3.70;;;19.30;68.50;;;;;;6102061;23;20191;-84
2022/10/25 09:59:23;;;;;;;7.55;3.70;;;19.30;68.30;;;;;;6070238;23;20644;-83
2022/10/25 10:02:08;;;;;;;;;;;;;;;;;;;;;
2022/10/25 10:04:46;;;;;;;10.13;3.55;;;19.30;68.30;;;;;;6043049;23;20176;-84
2022/10/25 10:07:32;;;;;;;13.82;3.78;;;19.30;68.30;;;;;;6048888;23;20182;-84
2022/10/25 10:10:00;;;;;;;10.65;3.53;;;19.30;68.20;;;;;;6074847;23;20594;-84
2022/10/25 10:12:38;;;;;;;7.07;3.78;;;19.30;68.10;;;;;;6046582;23;20165;-83
2022/10/25 10:15:08;;;;;;;6.72;4.10;;;19.20;68.30;;;;;;6043064;23;20185;-84
2022/10/25 10:17:42;;;;;;;6.25;3.90;;;19.30;68.50;;;;;;6049019;23;20246;-84
2022/10/25 10:20:24;;;;;;;9.60;4.03;;;19.30;68.30;;;;;;6084741;23;20223;-83
2022/10/25 10:22:58;;;;;;;7.15;4.05;;;19.30;68.20;;;;;;6107694;23;20164;-83
2022/10/25 10:25:39;;;;;;;10.02;4.25;;;19.30;68.20;;;;;;6061123;23;20160;-83
2022/10/25 10:28:07;;;;;;;9.45;3.80;;;19.30;68.10;;;;;;6073527;23;20160;-83
2022/10/25 10:31:18;;;;;;;12.57;4.10;;;19.30;68.00;;;;;;6057894;23;20154;-82
2022/10/25 10:34:06;;;;;;;7.65;4.03;;;19.30;68.10;;;;;;6051520;23;20190;-82
2022/10/25 10:36:44;;;;;;;7.38;4.00;;;19.30;68.10;;;;;;6002270;23;20162;-82
2022/10/25 10:39:37;;;;;;;9.07;3.47;;;19.30;68.00;;;;;;6058340;23;20287;-82
2022/10/25 10:42:16;;;;;;;7.43;3.42;;;19.40;67.90;;;;;;6046694;23;20700;-82
2022/10/25 10:45:18;;;;;;;10.48;3.80;;;19.40;67.90;;;;;;6001358;23;20166;-82
2022/10/25 10:47:58;;;;;;;5.95;3.90;;;19.40;67.90;;;;;;6002732;23;20154;-84
2022/10/25 10:50:48;;;;;;;8.48;3.90;;;19.40;68.10;;;;;;5998744;23;20154;-82
2022/10/25 10:53:24;;;;;;;5.28;3.50;;;19.30;68.10;;;;;;6083834;23;20168;-83
2022/10/25 10:56:00;;;;;;;8.07;4.22;;;19.40;68.00;;;;;;6058762;23;20157;-83
2022/10/25 10:58:39;;;;;;;9.85;4.07;;;19.30;68.00;;;;;;6083921;23;20157;-83
2022/10/25 11:01:20;;;;;;;10.23;4.20;;;19.40;68.10;;;;;;6090333;23;20215;-82
2022/10/25 11:04:02;;;;;;;5.18;3.78;;;19.30;68.20;;;;;;6112501;23;20167;-83
2022/10/25 11:06:40;;;;;;;4.70;3.42;;;19.30;67.90;;;;;;6088131;23;20169;-83
2022/10/25 11:09:15;;;;;;;5.25;3.90;;;19.30;68.00;;;;;;6068781;23;20166;-83
2022/10/25 11:12:03;;;;;;;5.43;4.10;;;19.40;68.10;;;;;;6140820;23;20156;-83
2022/10/25 11:14:36;;;;;;;5.53;3.72;;;19.30;68.00;;;;;;6054960;23;20180;-83
2022/10/25 11:17:10;;;;;;;6.85;4.03;;;19.30;68.00;;;;;;6071256;23;20160;-83
2022/10/25 11:20:04;;;;;;;5.95;3.63;;;19.40;68.00;;;;;;6118018;23;20179;-83
2022/10/25 11:22:47;;;;;;;7.90;4.07;;;19.40;68.00;;;;;;6097405;23;20150;-83
2022/10/25 11:25:25;;;;;;;6.97;3.95;;;19.30;68.00;;;;;;6094340;23;20151;-82
2022/10/25 11:28:36;;;;;;;5.07;3.95;;;19.30;68.00;;;;;;6118000;23;20500;-83
2022/10/25 11:31:32;;;;;;;5.03;3.80;;;19.30;68.00;;;;;;6169478;23;20166;-82
2022/10/25 11:34:20;;;;;;;5.25;3.60;;;19.30;68.20;;;;;;6116747;23;20169;-83
2022/10/25 11:37:13;;;;;;;6.45;3.78;;;19.30;68.20;;;;;;6150627;23;20605;-83
2022/10/25 11:39:55;;;;;;;5.93;3.60;;;19.30;67.80;;;;;;6153795;23;20221;-82
2022/10/25 11:42:36;;;;;;;4.22;3.60;;;19.30;68.10;;;;;;6222857;22;20586;-82
2022/10/25 11:45:29;;;;;;;5.30;3.60;;;19.30;68.00;;;;;;6262821;22;20137;-82
2022/10/25 11:48:36;;;;;;;4.35;3.80;;;19.20;67.80;;;;;;6269940;22;20129;-82
2022/10/25 11:51:32;;;;;;;;;;;;;;;;;;;;;
2022/10/25 11:54:22;;;;;;;6.25;3.60;;;19.30;68.20;;;;;;6180377;22;20175;-83
2022/10/25 11:56:52;;;;;;;4.93;3.80;;;19.20;68.20;;;;;;6264969;22;20142;-83
2022/10/25 11:59:43;;;;;;;4.88;3.58;;;19.30;68.30;;;;;;6268221;22;20165;-82
2022/10/25 12:02:36;;;;;;;3.67;3.30;;;19.30;68.40;;;;;;6161519;23;20157;-83
2022/10/25 12:05:35;;;;;;;3.97;3.33;;;19.20;68.20;;;;;;6176671;23;20614;-83
2022/10/25 12:08:42;;;;;;;4.10;3.70;;;19.20;68.20;;;;;;6165789;23;20234;-83
2022/10/25 12:11:26;;;;;;;4.82;3.83;;;19.30;68.30;;;;;;6118456;23;20222;-83
2022/10/25 12:14:39;;;;;;;4.65;3.67;;;19.30;68.20;;;;;;6120455;23;20159;-83
2022/10/25 12:17:32;;;;;;;4.63;3.50;;;19.30;68.50;;;;;;6109065;23;20160;-83
2022/10/25 12:20:07;;;;;;;4.93;3.15;;;19.30;68.50;;;;;;6084585;23;20196;-83
2022/10/25 12:22:36;;;;;;;4.15;3.63;;;19.20;68.30;;;;;;5989284;23;20197;-83
2022/10/25 12:25:24;;;;;;;4.72;3.10;;;19.30;68.60;;;;;;6056975;23;20150;-83
2022/10/25 12:28:31;;;;;;;4.28;3.60;;;19.30;68.70;;;;;;5989255;23;20157;-83
2022/10/25 12:31:02;;;;;;;3.90;3.30;;;19.20;68.70;;;;;;6019959;23;20164;-82
2022/10/25 12:33:39;;;;;;;4.03;3.25;;;19.20;68.70;;;;;;6076107;23;20159;-83
2022/10/25 12:36:33;;;;;;;4.70;3.53;;;19.20;68.80;;;;;;6063398;23;20152;-83
2022/10/25 12:39:18;;;;;;;4.32;3.50;;;19.20;68.80;;;;;;6040180;23;20184;-83
2022/10/25 12:41:48;;;;;;;3.85;3.30;;;19.20;69.00;;;;;;6080098;23;20204;-82
2022/10/25 12:44:38;;;;;;;4.85;3.67;;;19.20;68.90;;;;;;6095616;23;20616;-83
2022/10/25 12:47:27;;;;;;;3.85;3.45;;;19.20;68.90;;;;;;6063930;23;20232;-84
2022/10/25 12:50:21;;;;;;;5.20;3.35;;;19.30;68.90;;;;;;5990526;23;20150;-83
2022/10/25 12:53:05;;;;;;;3.83;3.40;;;19.20;69.00;;;;;;6031074;23;20183;-83
2022/10/25 12:55:50;;;;;;;;;;;;;;;;;;;;;
2022/10/25 12:58:37;;;;;;;4.43;3.45;;;19.20;69.10;;;;;;6063448;23;20157;-83
2022/10/25 13:01:56;;;;;;;6.22;3.55;;;19.20;69.20;;;;;;6068638;23;20173;-83
2022/10/25 13:04:37;;;;;;;3.40;3.08;;;19.20;70.00;;;;;;6117008;23;20188;-84
2022/10/25 13:07:06;;;;;;;5.40;3.22;;;19.20;69.10;;;;;;6095643;23;20163;-84
2022/10/25 13:09:35;;;;;;;5.25;3.38;;;19.20;69.20;;;;;;6086215;23;20184;-83
2022/10/25 13:12:07;;;;;;;4.90;3.25;;;19.20;69.10;;;;;;6006864;23;20180;-83
2022/10/25 13:15:01;;;;;;;5.40;3.28;;;19.20;69.20;;;;;;6026796;23;20154;-87
2022/10/25 14:37:01;;;;;;;3.63;3.20;;;19.30;69.20;;;;;;6284373;22;20254;-80
2022/10/25 14:39:30;;;;;;;4.35;3.00;;;19.30;69.00;;;;;;6167663;23;20190;-80
2022/10/25 14:42:34;;;;;;;3.58;3.20;;;19.30;69.20;;;;;;6167998;23;20165;-79
2022/10/25 14:45:11;;;;;;;2.72;2.53;;;19.30;69.20;;;;;;6103721;23;20152;-79
2022/10/25 14:47:38;;;;;;;2.97;2.70;;;19.40;69.30;;;;;;6075810;23;20160;-79
2022/10/25 14:50:05;;;;;;;3.33;2.80;;;19.40;69.10;;;;;;6077191;23;20157;-80
2022/10/25 14:52:30;;;;;;;3.55;3.08;;;19.40;69.00;;;;;;6076948;23;20152;-80
2022/10/25 14:55:03;;;;;;;3.75;2.85;;;19.40;69.00;;;;;;6101834;23;20140;-79
2022/10/25 14:57:33;;;;;;;2.97;2.67;;;19.40;68.90;;;;;;6099007;23;20156;-79
2022/10/25 15:00:07;;;;;;;4.93;2.85;;;19.40;69.00;;;;;;6081439;23;20195;-79
2022/10/25 15:03:08;;;;;;;;;;;;;;;;;;;;;
2022/10/25 15:05:44;;;;;;;3.50;3.20;;;19.40;69.00;;;;;;6069552;23;20168;-80
2022/10/25 15:08:18;;;;;;;3.22;2.92;;;19.40;69.00;;;;;;6031278;23;20276;-80
2022/10/25 15:10:47;;;;;;;3.70;3.20;;;19.40;68.90;;;;;;6105819;23;20155;-79
2022/10/25 15:13:26;;;;;;;4.57;2.85;;;19.40;69.00;;;;;;6129973;23;20152;-79